Lebanon, Missouri
Current Conditions -  °F | °C
As of 1:15 PM on Friday 21 Nov 2014 (Local Time) from KH21 Reporting Station
Overcast Overcast  
Wind Chill: 39°   Ceiling: 2100
Heat Index: 45°   Visibility: 10mi
Dew Point: 30°   Wind: 12mph
Humidity: 57%   Direction: 120°ESE
Pressure: 30.22"   Gusts: NA
Location:  37.68°N, 92.66°W
Report Text: KH21 211915Z AUTO 12010KT 10SM OVC021 07/M01 A3022 RMK AO2
Loading
Personal Weather Stations






























Interactive Weather Map New forecast layout! Learn more

10-Day Weather Forecast

Advertisements
Track Severe Weather on mobile